createdAt,value
2019-05-01T00:02:58.279Z,16.50
2019-05-01T00:05:57.094Z,17.90
2019-05-01T00:08:54.476Z,17.05
2019-05-01T00:11:51.072Z,18.60
2019-05-01T00:14:47.571Z,17.82
2019-05-01T00:17:43.753Z,18.07
2019-05-01T00:20:41.018Z,18.10
2019-05-01T00:23:37.501Z,18.57
2019-05-01T00:26:33.087Z,18.17
2019-05-01T00:29:27.979Z,17.92
2019-05-01T00:32:22.738Z,18.05
2019-05-01T00:35:17.778Z,17.95
2019-05-01T00:38:12.800Z,17.92
2019-05-01T00:41:08.197Z,17.82
2019-05-01T00:44:03.259Z,18.00
2019-05-01T00:46:58.252Z,18.85
2019-05-01T00:49:52.832Z,18.10
2019-05-01T00:52:48.163Z,18.92
2019-05-01T00:56:12.881Z,19.95
2019-05-01T00:59:36.320Z,18.80
2019-05-01T01:02:48.568Z,19.35
2019-05-01T01:05:44.188Z,19.60
2019-05-01T01:08:38.805Z,19.70
2019-05-01T01:11:34.242Z,21.12
2019-05-01T01:14:29.250Z,21.15
2019-05-01T01:17:24.259Z,21.75
2019-05-01T01:20:19.823Z,19.92
2019-05-01T01:23:16.469Z,20.48
2019-05-01T01:26:11.815Z,20.52
2019-05-01T01:29:09.434Z,21.05
2019-05-01T01:32:06.060Z,23.10
2019-05-01T01:35:03.628Z,21.48
2019-05-01T01:37:59.066Z,21.20
2019-05-01T01:40:54.543Z,21.35
2019-05-01T01:44:05.073Z,21.80
2019-05-01T01:47:01.121Z,21.25
2019-05-01T01:49:58.783Z,21.35
2019-05-01T01:52:56.871Z,21.93
2019-05-01T01:55:55.887Z,27.75
2019-05-01T01:58:53.578Z,28.42
2019-05-01T02:02:00.789Z,25.23
2019-05-01T02:05:12.087Z,22.32
2019-05-01T02:08:08.959Z,24.70
2019-05-01T02:11:03.517Z,23.60
2019-05-01T02:14:01.805Z,24.43
2019-05-01T02:16:58.380Z,21.33
2019-05-01T02:19:53.794Z,21.93
2019-05-01T02:22:49.818Z,20.40
2019-05-01T02:25:46.526Z,21.77
2019-05-01T02:28:47.332Z,24.15
2019-05-01T02:31:47.992Z,19.02
2019-05-01T02:34:45.393Z,20.32
2019-05-01T02:37:42.474Z,20.95
2019-05-01T02:40:57.742Z,19.48
2019-05-01T02:43:55.411Z,19.23
2019-05-01T02:46:53.344Z,20.88
2019-05-01T02:49:56.837Z,20.25
2019-05-01T02:52:53.974Z,21.57
2019-05-01T02:56:08.305Z,20.90
2019-05-01T02:59:05.844Z,18.32
2019-05-01T03:02:03.043Z,19.98
2019-05-01T03:05:00.510Z,18.48
2019-05-01T03:07:59.601Z,17.98
2019-05-01T03:10:58.783Z,16.80
2019-05-01T03:13:57.220Z,19.95
2019-05-01T03:16:58.092Z,18.30
2019-05-01T03:20:00.854Z,18.98
2019-05-01T03:23:15.730Z,16.32
2019-05-01T03:26:13.709Z,16.07
2019-05-01T03:29:11.712Z,17.32
2019-05-01T03:32:19.067Z,16.48
2019-05-01T03:35:09.734Z,16.60
2019-05-01T03:38:07.660Z,16.20
2019-05-01T03:41:05.218Z,16.40
2019-05-01T03:44:04.999Z,15.72
2019-05-01T03:47:03.665Z,16.10
2019-05-01T03:50:01.368Z,15.50
2019-05-01T03:52:58.042Z,15.93
2019-05-01T03:55:53.634Z,24.07
2019-05-01T03:58:49.304Z,15.55
2019-05-01T04:02:12.704Z,16.80
2019-05-01T04:05:08.579Z,15.28
2019-05-01T04:08:04.605Z,19.80
2019-05-01T04:11:00.292Z,17.77
2019-05-01T04:13:56.044Z,17.30
2019-05-01T04:16:55.544Z,14.95
2019-05-01T04:19:52.045Z,17.48
2019-05-01T04:22:47.811Z,17.15
2019-05-01T04:25:44.041Z,16.30
2019-05-01T04:29:04.667Z,15.75
2019-05-01T04:32:04.338Z,15.35
2019-05-01T04:35:18.775Z,17.07
2019-05-01T04:38:17.822Z,16.32
2019-05-01T04:41:15.688Z,17.00
2019-05-01T04:44:12.991Z,15.43
2019-05-01T04:47:11.199Z,15.85
2019-05-01T04:50:08.922Z,15.95
2019-05-01T04:53:05.256Z,15.30
2019-05-01T04:56:02.144Z,15.43
2019-05-01T04:59:00.414Z,14.90
2019-05-01T05:02:02.508Z,15.18
2019-05-01T05:05:28.130Z,15.18
2019-05-01T05:08:49.582Z,15.03
2019-05-01T05:11:53.756Z,16.80
2019-05-01T05:14:53.703Z,15.65
2019-05-01T05:17:50.027Z,16.37
2019-05-01T05:20:45.318Z,16.80
2019-05-01T05:23:41.965Z,15.93
2019-05-01T05:26:38.714Z,16.80
2019-05-01T05:29:42.877Z,16.70
2019-05-01T05:36:36.927Z,16.80
2019-05-01T05:39:40.674Z,15.60
2019-05-01T05:42:41.169Z,15.68
2019-05-01T05:49:08.668Z,16.17
2019-05-01T05:52:10.995Z,14.70
2019-05-01T05:55:19.408Z,16.20
2019-05-01T05:58:53.866Z,16.00
2019-05-01T06:02:08.693Z,16.55
2019-05-01T06:05:20.184Z,17.48
2019-05-01T06:08:23.639Z,14.47
2019-05-01T06:11:40.024Z,19.50
2019-05-01T06:15:02.418Z,16.17
2019-05-01T06:18:23.528Z,16.32
2019-05-01T06:21:50.756Z,15.48
2019-05-01T06:24:49.967Z,15.50
2019-05-01T06:27:51.486Z,15.60
2019-05-01T06:30:48.996Z,14.98
2019-05-01T06:33:48.681Z,14.28
2019-05-01T06:36:44.132Z,14.35
2019-05-01T06:43:12.559Z,14.63
2019-05-01T06:46:44.376Z,15.45
2019-05-01T06:53:39.977Z,15.32
2019-05-01T06:56:46.134Z,15.63
2019-05-01T06:59:43.055Z,16.30
2019-05-01T07:02:38.725Z,16.02
2019-05-01T07:05:35.910Z,17.05
2019-05-01T07:08:37.926Z,15.90
2019-05-01T07:11:32.831Z,15.38
2019-05-01T07:14:30.426Z,14.30
2019-05-01T07:17:28.555Z,15.55
2019-05-01T07:20:51.343Z,14.20
2019-05-01T07:23:47.760Z,14.28
2019-05-01T07:26:48.027Z,15.50
2019-05-01T07:29:44.922Z,15.93
2019-05-01T07:32:42.807Z,14.68
2019-05-01T07:35:41.521Z,14.35
2019-05-01T07:38:40.529Z,14.30
2019-05-01T07:41:37.712Z,14.60
2019-05-01T07:44:46.295Z,14.90
2019-05-01T07:47:55.771Z,14.58
2019-05-01T07:51:01.957Z,14.05
2019-05-01T07:53:59.138Z,13.93
2019-05-01T07:56:58.746Z,13.30
2019-05-01T08:00:03.149Z,14.63
2019-05-01T08:03:02.582Z,14.43
2019-05-01T08:06:00.018Z,13.65
2019-05-01T08:09:00.082Z,15.13
2019-05-01T08:12:02.400Z,14.13
2019-05-01T08:14:59.290Z,14.00
2019-05-01T08:17:56.785Z,14.00
2019-05-01T08:20:58.618Z,14.35
2019-05-01T08:23:55.409Z,13.65
2019-05-01T08:26:52.381Z,14.53
2019-05-01T08:30:05.503Z,14.50
2019-05-01T08:33:18.857Z,14.95
2019-05-01T08:36:15.730Z,14.93
2019-05-01T08:39:13.940Z,15.20
2019-05-01T08:42:10.033Z,14.35
2019-05-01T08:45:24.018Z,14.98
2019-05-01T08:48:30.840Z,14.25
2019-05-01T08:51:30.051Z,14.40
2019-05-01T08:54:40.123Z,14.65
2019-05-01T08:57:39.608Z,14.45
2019-05-01T09:00:40.911Z,15.03
2019-05-01T09:03:34.086Z,14.10
2019-05-01T09:06:34.948Z,14.98
2019-05-01T09:09:33.313Z,13.85
2019-05-01T09:12:30.924Z,13.90
2019-05-01T09:15:35.493Z,15.60
2019-05-01T09:18:31.451Z,13.00
2019-05-01T09:21:28.395Z,12.88
2019-05-01T09:24:27.847Z,12.82
2019-05-01T09:27:35.814Z,13.00
2019-05-01T09:30:49.352Z,13.50
2019-05-01T09:33:51.209Z,13.38
2019-05-01T09:36:51.521Z,14.58
2019-05-01T09:39:50.503Z,12.90
2019-05-01T09:42:48.545Z,13.28
2019-05-01T09:45:47.114Z,13.80
2019-05-01T09:48:54.873Z,14.20
2019-05-01T09:52:18.822Z,13.05
2019-05-01T09:55:22.995Z,14.83
2019-05-01T09:58:20.553Z,14.50
2019-05-01T10:01:17.486Z,13.22
2019-05-01T10:04:14.488Z,13.48
2019-05-01T10:07:11.176Z,13.62
2019-05-01T10:10:14.395Z,14.03
2019-05-01T10:13:59.656Z,12.70
2019-05-01T10:16:58.186Z,14.95
2019-05-01T10:20:02.553Z,13.32
2019-05-01T10:23:07.789Z,12.50
2019-05-01T10:26:07.811Z,12.82
2019-05-01T10:29:25.860Z,13.60
2019-05-01T10:32:34.833Z,13.98
2019-05-01T10:35:53.340Z,13.50
2019-05-01T10:38:52.451Z,13.30
2019-05-01T10:42:03.054Z,13.18
2019-05-01T10:45:04.744Z,14.18
2019-05-01T10:48:04.867Z,13.05
2019-05-01T10:51:06.391Z,14.07
2019-05-01T10:54:03.546Z,13.58
2019-05-01T10:57:03.427Z,13.43
2019-05-01T11:00:02.428Z,12.82
2019-05-01T11:03:01.510Z,12.82
2019-05-01T11:06:00.421Z,13.03
2019-05-01T11:08:57.534Z,13.88
2019-05-01T11:11:55.487Z,14.03
2019-05-01T11:14:52.886Z,14.20
2019-05-01T11:17:53.791Z,13.88
2019-05-01T11:21:03.475Z,13.03
2019-05-01T11:24:01.576Z,14.07
2019-05-01T11:27:15.899Z,14.47
2019-05-01T11:30:17.851Z,14.18
2019-05-01T11:33:26.443Z,13.95
2019-05-01T11:36:40.316Z,12.98
2019-05-01T11:39:48.168Z,13.32
2019-05-01T11:42:55.260Z,13.88
2019-05-01T11:45:57.108Z,14.20
2019-05-01T11:49:04.682Z,12.85
2019-05-01T11:52:10.744Z,12.68
2019-05-01T11:55:12.988Z,13.30
2019-05-01T11:58:25.351Z,27.30
2019-05-01T12:01:54.713Z,13.48
2019-05-01T12:04:55.153Z,12.93
2019-05-01T12:07:55.435Z,12.73
2019-05-01T12:11:05.092Z,12.93
2019-05-01T12:14:04.006Z,13.40
2019-05-01T12:17:23.474Z,13.28
2019-05-01T12:20:22.784Z,13.80
2019-05-01T12:23:20.773Z,14.03
2019-05-01T12:26:20.879Z,12.35
2019-05-01T12:29:19.180Z,13.28
2019-05-01T12:32:21.776Z,12.95
2019-05-01T12:35:22.869Z,12.70
2019-05-01T12:38:22.839Z,13.50
2019-05-01T12:41:46.405Z,12.90
2019-05-01T12:44:46.122Z,14.50
2019-05-01T12:47:57.560Z,15.30
2019-05-01T12:50:57.134Z,13.32
2019-05-01T12:54:18.871Z,14.68
2019-05-01T12:57:20.137Z,13.45
2019-05-01T13:00:24.674Z,13.28
2019-05-01T13:03:29.093Z,14.33
2019-05-01T13:06:30.243Z,14.03
2019-05-01T13:09:55.468Z,15.72
2019-05-01T13:12:51.780Z,16.77
2019-05-01T13:15:49.774Z,18.20
2019-05-01T13:18:45.881Z,15.18
2019-05-01T13:21:44.057Z,17.87
2019-05-01T13:24:52.908Z,15.15
2019-05-01T13:28:05.944Z,16.15
2019-05-01T13:31:12.826Z,16.93
2019-05-01T13:34:09.701Z,17.05
2019-05-01T13:37:07.453Z,17.98
2019-05-01T13:40:05.393Z,17.75
2019-05-01T13:43:04.003Z,16.67
2019-05-01T13:45:59.102Z,16.00
2019-05-01T13:48:57.615Z,17.87
2019-05-01T13:51:54.821Z,17.15
2019-05-01T13:54:52.233Z,18.77
2019-05-01T13:57:49.166Z,23.70
2019-05-01T14:00:46.958Z,18.90
2019-05-01T14:03:44.355Z,17.17
2019-05-01T14:06:41.973Z,15.80
2019-05-01T14:09:39.589Z,18.70
2019-05-01T14:12:37.209Z,17.80
2019-05-01T14:15:35.625Z,18.80
2019-05-01T14:18:32.576Z,19.45
2019-05-01T14:21:50.435Z,22.70
2019-05-01T14:24:51.018Z,23.95
2019-05-01T14:27:48.303Z,42.80
2019-05-01T14:30:44.931Z,28.83
2019-05-01T14:33:40.914Z,29.85
2019-05-01T14:36:36.539Z,28.67
2019-05-01T14:39:31.710Z,27.80
2019-05-01T14:42:28.488Z,27.45
2019-05-01T14:45:26.031Z,30.23
2019-05-01T14:48:22.725Z,28.70
2019-05-01T14:51:17.767Z,26.05
2019-05-01T14:54:13.376Z,27.75
2019-05-01T14:57:08.639Z,26.27
2019-05-01T15:00:04.432Z,24.90
2019-05-01T15:03:00.272Z,30.45
2019-05-01T15:05:56.662Z,32.10
2019-05-01T15:08:51.194Z,31.07
2019-05-01T15:11:48.172Z,30.62
2019-05-01T15:15:00.429Z,29.70
2019-05-01T15:18:08.686Z,29.30
2019-05-01T15:21:04.589Z,28.47
2019-05-01T15:24:00.735Z,29.60
2019-05-01T15:26:56.291Z,28.77
2019-05-01T15:29:52.079Z,25.40
2019-05-01T15:32:48.658Z,27.13
2019-05-01T15:35:45.860Z,26.05
2019-05-01T15:38:41.375Z,21.65
2019-05-01T15:41:52.890Z,23.47
2019-05-01T15:44:51.554Z,24.23
2019-05-01T15:47:48.941Z,24.32
2019-05-01T15:50:45.750Z,26.70
2019-05-01T15:53:43.363Z,29.60
2019-05-01T15:56:39.781Z,28.23
2019-05-01T15:59:35.718Z,28.10
2019-05-01T16:02:31.071Z,28.55
2019-05-01T16:05:26.859Z,28.25
2019-05-01T16:08:22.330Z,27.25
2019-05-01T16:11:39.079Z,26.65
2019-05-01T16:14:35.143Z,25.88
2019-05-01T16:17:32.451Z,23.83
2019-05-01T16:20:28.885Z,23.38
2019-05-01T16:23:25.770Z,22.80
2019-05-01T16:26:21.552Z,22.32
2019-05-01T16:29:17.668Z,22.22
2019-05-01T16:32:13.004Z,22.20
2019-05-01T16:35:08.550Z,22.00
2019-05-01T16:38:03.882Z,21.42
2019-05-01T16:41:11.200Z,22.35
2019-05-01T16:44:06.626Z,21.77
2019-05-01T16:47:02.559Z,22.80
2019-05-01T16:49:58.972Z,22.52
2019-05-01T16:52:54.072Z,21.57
2019-05-01T16:55:51.424Z,23.67
2019-05-01T16:58:48.151Z,23.73
2019-05-01T17:01:59.113Z,24.77
2019-05-01T17:05:06.703Z,25.05
2019-05-01T17:08:15.374Z,31.57
2019-05-01T17:11:13.511Z,25.88
2019-05-01T17:14:10.625Z,24.60
2019-05-01T17:17:07.635Z,25.60
2019-05-01T17:20:03.592Z,25.55
2019-05-01T17:22:59.379Z,24.47
2019-05-01T17:25:55.623Z,24.45
2019-05-01T17:28:53.667Z,22.48
2019-05-01T17:31:49.798Z,23.90
2019-05-01T17:34:47.309Z,21.95
2019-05-01T17:37:45.356Z,19.85
2019-05-01T17:40:42.229Z,19.17
2019-05-01T17:43:38.777Z,17.48
2019-05-01T17:46:34.614Z,17.05
2019-05-01T17:49:29.742Z,15.38
2019-05-01T17:52:28.103Z,15.15
2019-05-01T17:55:27.707Z,15.23
2019-05-01T17:58:25.603Z,13.98
2019-05-01T18:01:55.048Z,12.88
2019-05-01T18:05:11.100Z,12.28
2019-05-01T18:08:07.274Z,12.90
2019-05-01T18:11:03.565Z,12.98
2019-05-01T18:13:59.927Z,12.10
2019-05-01T18:16:55.639Z,11.70
2019-05-01T18:19:51.731Z,11.05
2019-05-01T18:23:13.419Z,11.50
2019-05-01T18:26:18.268Z,12.23
2019-05-01T18:29:23.413Z,12.07
2019-05-01T18:32:36.413Z,12.10
2019-05-01T18:35:33.337Z,11.43
2019-05-01T18:38:34.027Z,12.00
2019-05-01T18:41:40.728Z,11.68
2019-05-01T18:44:42.394Z,12.13
2019-05-01T18:47:35.051Z,11.57
2019-05-01T18:50:31.671Z,11.18
2019-05-01T18:53:27.676Z,11.80
2019-05-01T18:56:23.210Z,11.28
2019-05-01T18:59:19.329Z,12.28
2019-05-01T19:02:15.040Z,12.55
2019-05-01T19:05:10.943Z,12.60
2019-05-01T19:08:08.278Z,11.85
2019-05-01T19:11:12.154Z,11.00
2019-05-01T19:14:02.206Z,10.70
2019-05-01T19:16:58.295Z,10.63
2019-05-01T19:19:55.337Z,10.40
2019-05-01T19:22:51.798Z,10.95
2019-05-01T19:25:48.722Z,10.75
2019-05-01T19:28:44.606Z,10.18
2019-05-01T19:31:40.187Z,10.50
2019-05-01T19:34:35.700Z,10.13
2019-05-01T19:37:33.109Z,10.00
2019-05-01T19:40:32.744Z,10.48
2019-05-01T19:43:28.041Z,9.93
2019-05-01T19:46:26.234Z,10.28
2019-05-01T19:49:24.709Z,12.13
2019-05-01T19:52:20.905Z,10.50
2019-05-01T19:55:17.428Z,9.63
2019-05-01T19:58:15.144Z,9.53
2019-05-01T20:01:10.532Z,8.75
2019-05-01T20:04:08.344Z,9.00
2019-05-01T20:07:04.944Z,8.58
2019-05-01T20:10:01.182Z,9.00
2019-05-01T20:12:58.615Z,8.65
2019-05-01T20:15:55.730Z,8.08
2019-05-01T20:18:53.326Z,8.63
2019-05-01T20:21:49.957Z,8.43
2019-05-01T20:24:46.705Z,8.80
2019-05-01T20:27:45.475Z,8.53
2019-05-01T20:30:39.583Z,8.50
2019-05-01T20:33:39.166Z,8.33
2019-05-01T20:36:32.492Z,8.33
2019-05-01T20:39:29.059Z,7.97
2019-05-01T20:42:25.473Z,8.15
2019-05-01T20:45:22.357Z,8.48
2019-05-01T20:48:23.007Z,8.45
2019-05-01T20:51:14.863Z,9.95
2019-05-01T20:54:11.101Z,7.67
2019-05-01T20:57:13.526Z,7.80
2019-05-01T21:00:11.299Z,8.98
2019-05-01T21:03:05.206Z,8.40
2019-05-01T21:06:07.740Z,8.10
2019-05-01T21:09:13.824Z,8.80
2019-05-01T21:12:06.313Z,8.33
2019-05-01T21:15:02.352Z,8.63
2019-05-01T21:17:58.567Z,8.38
2019-05-01T21:20:54.294Z,8.78
2019-05-01T21:23:53.362Z,8.90
2019-05-01T21:26:47.563Z,8.90
2019-05-01T21:29:44.480Z,9.48
2019-05-01T21:32:40.252Z,9.20
2019-05-01T21:35:36.687Z,9.63
2019-05-01T21:38:32.734Z,9.63
2019-05-01T21:41:28.515Z,9.53
2019-05-01T21:44:25.090Z,9.75
2019-05-01T21:47:23.527Z,9.50
2019-05-01T21:50:24.890Z,9.35
2019-05-01T21:53:16.690Z,8.83
2019-05-01T21:56:13.042Z,9.35
2019-05-01T21:59:10.256Z,9.80
2019-05-01T22:02:10.083Z,9.10
2019-05-01T22:05:03.743Z,9.05
2019-05-01T22:08:03.723Z,8.78
2019-05-01T22:11:01.738Z,9.08
2019-05-01T22:13:59.778Z,9.10
2019-05-01T22:16:53.110Z,8.90
2019-05-01T22:19:50.667Z,8.33
2019-05-01T22:22:57.483Z,8.38
2019-05-01T22:25:57.427Z,8.38
2019-05-01T22:28:57.304Z,8.55
2019-05-01T22:32:01.018Z,8.50
2019-05-01T22:35:06.689Z,8.13
2019-05-01T22:38:03.006Z,7.75
2019-05-01T22:41:13.431Z,8.08
2019-05-01T22:44:12.873Z,8.55
2019-05-01T22:47:10.118Z,7.85
2019-05-01T22:50:01.924Z,8.08
2019-05-01T22:52:58.468Z,8.25
2019-05-01T22:55:57.222Z,7.42
2019-05-01T22:58:48.717Z,7.65
2019-05-01T23:01:49.242Z,7.22
2019-05-01T23:04:40.805Z,8.03
2019-05-01T23:07:36.075Z,7.42
2019-05-01T23:10:31.286Z,7.47
2019-05-01T23:13:26.590Z,8.15
2019-05-01T23:16:22.077Z,7.33
2019-05-01T23:19:17.019Z,7.58
2019-05-01T23:22:12.314Z,7.22
2019-05-01T23:25:07.747Z,7.37
2019-05-01T23:28:04.218Z,7.78
2019-05-01T23:30:59.321Z,7.85
2019-05-01T23:33:54.371Z,8.13
2019-05-01T23:36:49.415Z,7.25
2019-05-01T23:39:44.159Z,7.67
2019-05-01T23:42:43.368Z,7.87
2019-05-01T23:45:36.369Z,7.80
2019-05-01T23:48:32.191Z,7.85
2019-05-01T23:51:28.508Z,8.08
2019-05-01T23:54:23.113Z,8.45
2019-05-01T23:57:18.877Z,8.25
